sensor_id;sensor_type;location;lat;lon;timestamp;P1;durP1;ratioP1;P2;durP2;ratioP2
57345;SDS011;43181;50.974;18.244;2023-05-31T00:01:08;1.90;;;1.50;;
57345;SDS011;43181;50.974;18.244;2023-05-31T00:03:35;3.30;;;2.30;;
57345;SDS011;43181;50.974;18.244;2023-05-31T00:06:01;1.50;;;1.10;;
57345;SDS011;43181;50.974;18.244;2023-05-31T00:08:27;2.40;;;1.60;;
57345;SDS011;43181;50.974;18.244;2023-05-31T00:10:52;1.90;;;1.60;;
57345;SDS011;43181;50.974;18.244;2023-05-31T00:13:18;4.60;;;1.70;;
57345;SDS011;43181;50.974;18.244;2023-05-31T00:15:43;4.30;;;2.00;;
57345;SDS011;43181;50.974;18.244;2023-05-31T00:18:09;2.20;;;1.70;;
57345;SDS011;43181;50.974;18.244;2023-05-31T00:20:35;1.40;;;1.30;;
57345;SDS011;43181;50.974;18.244;2023-05-31T00:23:01;5.10;;;1.80;;
57345;SDS011;43181;50.974;18.244;2023-05-31T00:25:27;0.80;;;0.80;;
57345;SDS011;43181;50.974;18.244;2023-05-31T00:27:52;1.20;;;1.20;;
57345;SDS011;43181;50.974;18.244;2023-05-31T00:30:20;1.80;;;1.50;;
57345;SDS011;43181;50.974;18.244;2023-05-31T00:32:45;6.00;;;3.20;;
57345;SDS011;43181;50.974;18.244;2023-05-31T00:35:11;1.10;;;1.00;;
57345;SDS011;43181;50.974;18.244;2023-05-31T00:37:37;3.60;;;1.70;;
57345;SDS011;43181;50.974;18.244;2023-05-31T00:40:03;3.30;;;1.90;;
57345;SDS011;43181;50.974;18.244;2023-05-31T00:42:31;6.80;;;1.90;;
57345;SDS011;43181;50.974;18.244;2023-05-31T00:44:57;1.10;;;1.00;;
57345;SDS011;43181;50.974;18.244;2023-05-31T00:47:24;0.80;;;0.80;;
57345;SDS011;43181;50.974;18.244;2023-05-31T00:49:51;1.40;;;1.30;;
57345;SDS011;43181;50.974;18.244;2023-05-31T00:52:18;4.50;;;1.40;;
57345;SDS011;43181;50.974;18.244;2023-05-31T00:54:43;1.90;;;1.80;;
57345;SDS011;43181;50.974;18.244;2023-05-31T00:57:10;1.90;;;0.90;;
57345;SDS011;43181;50.974;18.244;2023-05-31T00:59:36;1.50;;;1.40;;
57345;SDS011;43181;50.974;18.244;2023-05-31T01:02:02;2.10;;;1.80;;
57345;SDS011;43181;50.974;18.244;2023-05-31T01:04:29;0.90;;;0.90;;
57345;SDS011;43181;50.974;18.244;2023-05-31T01:06:56;1.30;;;1.30;;
57345;SDS011;43181;50.974;18.244;2023-05-31T01:09:22;1.10;;;1.10;;
57345;SDS011;43181;50.974;18.244;2023-05-31T01:17:09;1.80;;;0.90;;
57345;SDS011;43181;50.974;18.244;2023-05-31T01:19:47;1.20;;;0.80;;
57345;SDS011;43181;50.974;18.244;2023-05-31T01:27:40;1.50;;;1.40;;
57345;SDS011;43181;50.974;18.244;2023-05-31T01:30:07;2.90;;;1.10;;
57345;SDS011;43181;50.974;18.244;2023-05-31T01:32:34;0.90;;;0.90;;
57345;SDS011;43181;50.974;18.244;2023-05-31T01:35:02;3.80;;;1.80;;
57345;SDS011;43181;50.974;18.244;2023-05-31T01:37:28;5.90;;;1.60;;
57345;SDS011;43181;50.974;18.244;2023-05-31T01:39:54;0.50;;;0.50;;
57345;SDS011;43181;50.974;18.244;2023-05-31T01:42:20;0.90;;;0.80;;
57345;SDS011;43181;50.974;18.244;2023-05-31T01:44:46;1.20;;;1.10;;
57345;SDS011;43181;50.974;18.244;2023-05-31T01:47:13;2.10;;;0.70;;
57345;SDS011;43181;50.974;18.244;2023-05-31T01:49:40;0.50;;;0.50;;
57345;SDS011;43181;50.974;18.244;2023-05-31T01:52:07;3.80;;;0.90;;
57345;SDS011;43181;50.974;18.244;2023-05-31T01:54:35;1.00;;;0.90;;
57345;SDS011;43181;50.974;18.244;2023-05-31T01:57:02;0.30;;;0.30;;
57345;SDS011;43181;50.974;18.244;2023-05-31T01:59:29;0.80;;;0.80;;
57345;SDS011;43181;50.974;18.244;2023-05-31T02:01:55;0.40;;;0.40;;
57345;SDS011;43181;50.974;18.244;2023-05-31T02:04:21;0.40;;;0.40;;
57345;SDS011;43181;50.974;18.244;2023-05-31T02:06:47;1.40;;;1.30;;
57345;SDS011;43181;50.974;18.244;2023-05-31T02:09:13;0.80;;;0.80;;
57345;SDS011;43181;50.974;18.244;2023-05-31T02:11:39;0.80;;;0.70;;
57345;SDS011;43181;50.974;18.244;2023-05-31T02:14:05;1.10;;;0.70;;
57345;SDS011;43181;50.974;18.244;2023-05-31T02:16:31;0.90;;;0.80;;
57345;SDS011;43181;50.974;18.244;2023-05-31T02:18:56;1.10;;;1.10;;
57345;SDS011;43181;50.974;18.244;2023-05-31T02:21:23;1.40;;;1.40;;
57345;SDS011;43181;50.974;18.244;2023-05-31T02:23:49;0.60;;;0.60;;
57345;SDS011;43181;50.974;18.244;2023-05-31T02:26:15;0.90;;;0.80;;
57345;SDS011;43181;50.974;18.244;2023-05-31T02:28:42;2.90;;;1.10;;
57345;SDS011;43181;50.974;18.244;2023-05-31T02:31:07;0.30;;;0.30;;
57345;SDS011;43181;50.974;18.244;2023-05-31T02:33:33;1.20;;;1.10;;
57345;SDS011;43181;50.974;18.244;2023-05-31T02:35:59;0.70;;;0.70;;
57345;SDS011;43181;50.974;18.244;2023-05-31T02:38:27;0.90;;;0.90;;
57345;SDS011;43181;50.974;18.244;2023-05-31T02:40:53;0.30;;;0.30;;
57345;SDS011;43181;50.974;18.244;2023-05-31T02:43:19;1.00;;;1.00;;
57345;SDS011;43181;50.974;18.244;2023-05-31T02:45:45;0.80;;;0.80;;
57345;SDS011;43181;50.974;18.244;2023-05-31T02:48:11;1.10;;;1.00;;
57345;SDS011;43181;50.974;18.244;2023-05-31T02:50:36;0.40;;;0.40;;
57345;SDS011;43181;50.974;18.244;2023-05-31T02:53:02;0.80;;;0.80;;
57345;SDS011;43181;50.974;18.244;2023-05-31T02:55:30;1.20;;;0.80;;
57345;SDS011;43181;50.974;18.244;2023-05-31T02:57:56;1.80;;;0.80;;
57345;SDS011;43181;50.974;18.244;2023-05-31T03:00:23;1.50;;;1.40;;
57345;SDS011;43181;50.974;18.244;2023-05-31T03:02:49;2.90;;;1.20;;
57345;SDS011;43181;50.974;18.244;2023-05-31T03:05:15;2.70;;;2.20;;
57345;SDS011;43181;50.974;18.244;2023-05-31T03:07:41;1.90;;;1.00;;
57345;SDS011;43181;50.974;18.244;2023-05-31T03:10:07;1.10;;;1.10;;
57345;SDS011;43181;50.974;18.244;2023-05-31T03:12:34;1.20;;;1.10;;
57345;SDS011;43181;50.974;18.244;2023-05-31T03:15:00;0.80;;;0.80;;
57345;SDS011;43181;50.974;18.244;2023-05-31T03:17:25;0.30;;;0.30;;
57345;SDS011;43181;50.974;18.244;2023-05-31T03:19:51;0.70;;;0.70;;
57345;SDS011;43181;50.974;18.244;2023-05-31T03:22:17;0.50;;;0.50;;
57345;SDS011;43181;50.974;18.244;2023-05-31T03:24:42;0.50;;;0.50;;
57345;SDS011;43181;50.974;18.244;2023-05-31T03:27:08;1.30;;;1.20;;
57345;SDS011;43181;50.974;18.244;2023-05-31T03:29:36;0.50;;;0.50;;
57345;SDS011;43181;50.974;18.244;2023-05-31T03:32:03;3.50;;;1.30;;
57345;SDS011;43181;50.974;18.244;2023-05-31T03:34:29;0.60;;;0.60;;
57345;SDS011;43181;50.974;18.244;2023-05-31T03:36:55;0.90;;;0.90;;
57345;SDS011;43181;50.974;18.244;2023-05-31T03:39:20;0.70;;;0.70;;
57345;SDS011;43181;50.974;18.244;2023-05-31T03:41:46;0.80;;;0.80;;
57345;SDS011;43181;50.974;18.244;2023-05-31T03:44:12;0.70;;;0.70;;
57345;SDS011;43181;50.974;18.244;2023-05-31T03:46:37;2.60;;;1.20;;
57345;SDS011;43181;50.974;18.244;2023-05-31T03:49:03;0.50;;;0.50;;
57345;SDS011;43181;50.974;18.244;2023-05-31T03:51:30;0.70;;;0.70;;
57345;SDS011;43181;50.974;18.244;2023-05-31T03:53:56;0.80;;;0.80;;
57345;SDS011;43181;50.974;18.244;2023-05-31T03:56:22;1.80;;;1.70;;
57345;SDS011;43181;50.974;18.244;2023-05-31T03:58:47;1.90;;;1.70;;
57345;SDS011;43181;50.974;18.244;2023-05-31T04:01:13;0.80;;;0.80;;
57345;SDS011;43181;50.974;18.244;2023-05-31T04:03:39;0.70;;;0.70;;
57345;SDS011;43181;50.974;18.244;2023-05-31T04:06:07;0.60;;;0.60;;
57345;SDS011;43181;50.974;18.244;2023-05-31T04:08:32;0.40;;;0.40;;
57345;SDS011;43181;50.974;18.244;2023-05-31T04:10:58;0.80;;;0.80;;
57345;SDS011;43181;50.974;18.244;2023-05-31T04:13:24;0.70;;;0.70;;
57345;SDS011;43181;50.974;18.244;2023-05-31T04:15:49;0.40;;;0.40;;
57345;SDS011;43181;50.974;18.244;2023-05-31T04:18:15;1.50;;;1.50;;
57345;SDS011;43181;50.974;18.244;2023-05-31T04:20:41;2.50;;;1.10;;
57345;SDS011;43181;50.974;18.244;2023-05-31T04:23:07;1.80;;;1.40;;
57345;SDS011;43181;50.974;18.244;2023-05-31T04:25:35;0.70;;;0.70;;
57345;SDS011;43181;50.974;18.244;2023-05-31T04:28:01;0.70;;;0.70;;
57345;SDS011;43181;50.974;18.244;2023-05-31T04:30:27;0.70;;;0.70;;
57345;SDS011;43181;50.974;18.244;2023-05-31T04:32:53;1.30;;;0.90;;
57345;SDS011;43181;50.974;18.244;2023-05-31T04:35:22;1.60;;;1.50;;
57345;SDS011;43181;50.974;18.244;2023-05-31T04:37:48;5.40;;;1.00;;
57345;SDS011;43181;50.974;18.244;2023-05-31T04:40:17;2.80;;;1.60;;
57345;SDS011;43181;50.974;18.244;2023-05-31T04:42:45;3.10;;;2.00;;
57345;SDS011;43181;50.974;18.244;2023-05-31T04:45:12;1.40;;;1.30;;
57345;SDS011;43181;50.974;18.244;2023-05-31T04:47:37;1.00;;;0.70;;
57345;SDS011;43181;50.974;18.244;2023-05-31T04:50:03;0.70;;;0.70;;
57345;SDS011;43181;50.974;18.244;2023-05-31T04:52:29;1.10;;;1.10;;
57345;SDS011;43181;50.974;18.244;2023-05-31T04:54:57;0.70;;;0.70;;
57345;SDS011;43181;50.974;18.244;2023-05-31T04:57:24;0.70;;;0.60;;
57345;SDS011;43181;50.974;18.244;2023-05-31T04:59:52;0.70;;;0.40;;
57345;SDS011;43181;50.974;18.244;2023-05-31T05:02:18;2.20;;;0.90;;
57345;SDS011;43181;50.974;18.244;2023-05-31T05:04:44;0.70;;;0.70;;
57345;SDS011;43181;50.974;18.244;2023-05-31T05:07:11;0.70;;;0.60;;
57345;SDS011;43181;50.974;18.244;2023-05-31T05:09:37;0.50;;;0.50;;
57345;SDS011;43181;50.974;18.244;2023-05-31T05:12:03;0.40;;;0.40;;
57345;SDS011;43181;50.974;18.244;2023-05-31T05:14:30;2.80;;;0.90;;
57345;SDS011;43181;50.974;18.244;2023-05-31T05:16:56;0.80;;;0.60;;
57345;SDS011;43181;50.974;18.244;2023-05-31T05:19:22;1.40;;;0.60;;
57345;SDS011;43181;50.974;18.244;2023-05-31T05:21:47;0.60;;;0.50;;
57345;SDS011;43181;50.974;18.244;2023-05-31T05:24:13;0.30;;;0.30;;
57345;SDS011;43181;50.974;18.244;2023-05-31T05:26:40;0.70;;;0.70;;
57345;SDS011;43181;50.974;18.244;2023-05-31T05:29:06;2.60;;;1.20;;
57345;SDS011;43181;50.974;18.244;2023-05-31T05:31:34;2.20;;;0.80;;
57345;SDS011;43181;50.974;18.244;2023-05-31T05:34:00;1.00;;;0.70;;
57345;SDS011;43181;50.974;18.244;2023-05-31T05:36:26;0.30;;;0.30;;
57345;SDS011;43181;50.974;18.244;2023-05-31T05:38:52;8.20;;;0.70;;
57345;SDS011;43181;50.974;18.244;2023-05-31T05:41:17;0.60;;;0.30;;
57345;SDS011;43181;50.974;18.244;2023-05-31T05:43:43;0.70;;;0.70;;
57345;SDS011;43181;50.974;18.244;2023-05-31T05:46:09;0.30;;;0.30;;
57345;SDS011;43181;50.974;18.244;2023-05-31T05:48:34;5.70;;;1.30;;
57345;SDS011;43181;50.974;18.244;2023-05-31T05:51:00;0.60;;;0.50;;
57345;SDS011;43181;50.974;18.244;2023-05-31T05:53:26;0.90;;;0.80;;
57345;SDS011;43181;50.974;18.244;2023-05-31T05:55:52;0.80;;;0.70;;
57345;SDS011;43181;50.974;18.244;2023-05-31T05:58:18;0.40;;;0.40;;
57345;SDS011;43181;50.974;18.244;2023-05-31T06:00:44;2.60;;;0.40;;
57345;SDS011;43181;50.974;18.244;2023-05-31T06:03:11;0.50;;;0.40;;
57345;SDS011;43181;50.974;18.244;2023-05-31T06:05:37;1.20;;;1.00;;
57345;SDS011;43181;50.974;18.244;2023-05-31T06:08:03;0.10;;;0.10;;
57345;SDS011;43181;50.974;18.244;2023-05-31T06:10:29;1.60;;;0.40;;
57345;SDS011;43181;50.974;18.244;2023-05-31T06:12:54;0.70;;;0.70;;
57345;SDS011;43181;50.974;18.244;2023-05-31T06:15:20;2.20;;;0.60;;
57345;SDS011;43181;50.974;18.244;2023-05-31T06:17:46;0.30;;;0.20;;
57345;SDS011;43181;50.974;18.244;2023-05-31T06:20:13;1.50;;;0.70;;
57345;SDS011;43181;50.974;18.244;2023-05-31T06:22:40;1.30;;;1.00;;
57345;SDS011;43181;50.974;18.244;2023-05-31T06:25:06;0.60;;;0.60;;
57345;SDS011;43181;50.974;18.244;2023-05-31T06:27:33;1.00;;;1.00;;
57345;SDS011;43181;50.974;18.244;2023-05-31T06:30:00;0.30;;;0.30;;
57345;SDS011;43181;50.974;18.244;2023-05-31T06:32:27;0.60;;;0.30;;
57345;SDS011;43181;50.974;18.244;2023-05-31T06:34:53;1.00;;;0.70;;
57345;SDS011;43181;50.974;18.244;2023-05-31T06:37:19;0.40;;;0.40;;
57345;SDS011;43181;50.974;18.244;2023-05-31T06:39:47;0.90;;;0.80;;
57345;SDS011;43181;50.974;18.244;2023-05-31T06:42:13;0.60;;;0.60;;
57345;SDS011;43181;50.974;18.244;2023-05-31T06:44:42;0.40;;;0.40;;
57345;SDS011;43181;50.974;18.244;2023-05-31T06:47:08;1.40;;;0.70;;
57345;SDS011;43181;50.974;18.244;2023-05-31T06:49:34;0.60;;;0.60;;
57345;SDS011;43181;50.974;18.244;2023-05-31T06:52:00;0.50;;;0.50;;
57345;SDS011;43181;50.974;18.244;2023-05-31T06:54:27;1.10;;;0.80;;
57345;SDS011;43181;50.974;18.244;2023-05-31T06:56:53;0.20;;;0.20;;
57345;SDS011;43181;50.974;18.244;2023-05-31T06:59:20;0.40;;;0.40;;
57345;SDS011;43181;50.974;18.244;2023-05-31T07:01:46;0.80;;;0.40;;
57345;SDS011;43181;50.974;18.244;2023-05-31T07:04:11;0.90;;;0.40;;
57345;SDS011;43181;50.974;18.244;2023-05-31T07:06:37;0.40;;;0.40;;
57345;SDS011;43181;50.974;18.244;2023-05-31T07:09:03;0.40;;;0.40;;
57345;SDS011;43181;50.974;18.244;2023-05-31T07:11:30;0.50;;;0.50;;
57345;SDS011;43181;50.974;18.244;2023-05-31T07:13:56;2.80;;;0.50;;
57345;SDS011;43181;50.974;18.244;2023-05-31T07:16:27;0.30;;;0.30;;
57345;SDS011;43181;50.974;18.244;2023-05-31T07:18:53;0.30;;;0.30;;
57345;SDS011;43181;50.974;18.244;2023-05-31T07:21:19;1.30;;;0.60;;
57345;SDS011;43181;50.974;18.244;2023-05-31T07:23:45;0.80;;;0.70;;
57345;SDS011;43181;50.974;18.244;2023-05-31T07:26:10;0.40;;;0.40;;
57345;SDS011;43181;50.974;18.244;2023-05-31T07:28:36;0.80;;;0.50;;
57345;SDS011;43181;50.974;18.244;2023-05-31T07:31:02;0.40;;;0.40;;
57345;SDS011;43181;50.974;18.244;2023-05-31T07:33:28;0.60;;;0.30;;
57345;SDS011;43181;50.974;18.244;2023-05-31T07:35:54;0.10;;;0.10;;
57345;SDS011;43181;50.974;18.244;2023-05-31T07:38:20;0.20;;;0.20;;
57345;SDS011;43181;50.974;18.244;2023-05-31T07:40:46;1.20;;;0.50;;
57345;SDS011;43181;50.974;18.244;2023-05-31T07:43:11;0.50;;;0.40;;
57345;SDS011;43181;50.974;18.244;2023-05-31T07:45:38;0.40;;;0.40;;
57345;SDS011;43181;50.974;18.244;2023-05-31T07:48:04;0.30;;;0.30;;
57345;SDS011;43181;50.974;18.244;2023-05-31T07:50:30;1.10;;;0.40;;
57345;SDS011;43181;50.974;18.244;2023-05-31T07:52:55;0.20;;;0.20;;
57345;SDS011;43181;50.974;18.244;2023-05-31T07:55:21;0.30;;;0.30;;
57345;SDS011;43181;50.974;18.244;2023-05-31T07:57:48;0.20;;;0.20;;
57345;SDS011;43181;50.974;18.244;2023-05-31T08:00:13;0.80;;;0.60;;
57345;SDS011;43181;50.974;18.244;2023-05-31T08:02:40;3.30;;;0.50;;
57345;SDS011;43181;50.974;18.244;2023-05-31T08:05:07;0.20;;;0.20;;
57345;SDS011;43181;50.974;18.244;2023-05-31T08:07:34;1.30;;;0.20;;
57345;SDS011;43181;50.974;18.244;2023-05-31T08:09:59;0.20;;;0.10;;
57345;SDS011;43181;50.974;18.244;2023-05-31T08:12:25;2.30;;;0.50;;
57345;SDS011;43181;50.974;18.244;2023-05-31T08:14:51;2.20;;;0.50;;
57345;SDS011;43181;50.974;18.244;2023-05-31T08:17:16;0.90;;;0.50;;
57345;SDS011;43181;50.974;18.244;2023-05-31T08:19:42;0.60;;;0.40;;
57345;SDS011;43181;50.974;18.244;2023-05-31T08:22:08;0.40;;;0.20;;
57345;SDS011;43181;50.974;18.244;2023-05-31T08:24:33;0.50;;;0.20;;
57345;SDS011;43181;50.974;18.244;2023-05-31T08:26:59;0.30;;;0.30;;
57345;SDS011;43181;50.974;18.244;2023-05-31T08:29:25;0.40;;;0.10;;
57345;SDS011;43181;50.974;18.244;2023-05-31T08:31:50;2.40;;;0.30;;
57345;SDS011;43181;50.974;18.244;2023-05-31T08:34:16;0.60;;;0.30;;
57345;SDS011;43181;50.974;18.244;2023-05-31T08:36:43;0.20;;;0.20;;
57345;SDS011;43181;50.974;18.244;2023-05-31T08:39:09;0.10;;;0.10;;
57345;SDS011;43181;50.974;18.244;2023-05-31T08:41:37;0.50;;;0.10;;
57345;SDS011;43181;50.974;18.244;2023-05-31T08:44:16;0.40;;;0.20;;
57345;SDS011;43181;50.974;18.244;2023-05-31T08:46:42;1.40;;;0.30;;
57345;SDS011;43181;50.974;18.244;2023-05-31T08:49:12;0.70;;;0.20;;
57345;SDS011;43181;50.974;18.244;2023-05-31T08:51:44;0.20;;;0.20;;
57345;SDS011;43181;50.974;18.244;2023-05-31T08:54:13;1.60;;;0.30;;
57345;SDS011;43181;50.974;18.244;2023-05-31T08:56:39;0.90;;;0.30;;
57345;SDS011;43181;50.974;18.244;2023-05-31T08:59:07;0.30;;;0.30;;
57345;SDS011;43181;50.974;18.244;2023-05-31T09:01:37;0.10;;;0.10;;
57345;SDS011;43181;50.974;18.244;2023-05-31T09:04:04;0.30;;;0.10;;
57345;SDS011;43181;50.974;18.244;2023-05-31T09:06:33;0.30;;;0.30;;
57345;SDS011;43181;50.974;18.244;2023-05-31T09:08:59;0.10;;;0.10;;
57345;SDS011;43181;50.974;18.244;2023-05-31T09:11:26;0.50;;;0.20;;
57345;SDS011;43181;50.974;18.244;2023-05-31T09:13:52;0.40;;;0.20;;
57345;SDS011;43181;50.974;18.244;2023-05-31T09:16:24;0.20;;;0.10;;
57345;SDS011;43181;50.974;18.244;2023-05-31T09:18:51;0.70;;;0.50;;
57345;SDS011;43181;50.974;18.244;2023-05-31T09:21:28;1.00;;;0.50;;
57345;SDS011;43181;50.974;18.244;2023-05-31T09:23:55;0.90;;;0.50;;
57345;SDS011;43181;50.974;18.244;2023-05-31T09:26:22;0.30;;;0.30;;
57345;SDS011;43181;50.974;18.244;2023-05-31T09:28:51;1.00;;;0.30;;
57345;SDS011;43181;50.974;18.244;2023-05-31T09:31:18;1.20;;;0.30;;
57345;SDS011;43181;50.974;18.244;2023-05-31T09:33:46;0.10;;;0.10;;
57345;SDS011;43181;50.974;18.244;2023-05-31T09:36:28;1.40;;;0.50;;
57345;SDS011;43181;50.974;18.244;2023-05-31T09:39:01;0.20;;;0.20;;
57345;SDS011;43181;50.974;18.244;2023-05-31T09:41:33;0.10;;;0.10;;
57345;SDS011;43181;50.974;18.244;2023-05-31T09:44:01;0.90;;;0.20;;
57345;SDS011;43181;50.974;18.244;2023-05-31T09:46:27;0.40;;;0.20;;
57345;SDS011;43181;50.974;18.244;2023-05-31T09:48:57;3.30;;;0.60;;
57345;SDS011;43181;50.974;18.244;2023-05-31T09:51:23;3.60;;;0.40;;
57345;SDS011;43181;50.974;18.244;2023-05-31T09:53:49;0.40;;;0.30;;
57345;SDS011;43181;50.974;18.244;2023-05-31T09:56:20;0.40;;;0.40;;
57345;SDS011;43181;50.974;18.244;2023-05-31T09:58:47;0.40;;;0.30;;
57345;SDS011;43181;50.974;18.244;2023-05-31T10:01:16;0.80;;;0.30;;
57345;SDS011;43181;50.974;18.244;2023-05-31T10:03:43;0.20;;;0.20;;
57345;SDS011;43181;50.974;18.244;2023-05-31T10:06:09;2.90;;;0.20;;
57345;SDS011;43181;50.974;18.244;2023-05-31T10:08:36;0.20;;;0.10;;
57345;SDS011;43181;50.974;18.244;2023-05-31T10:11:02;0.30;;;0.20;;
57345;SDS011;43181;50.974;18.244;2023-05-31T10:13:29;0.70;;;0.40;;
57345;SDS011;43181;50.974;18.244;2023-05-31T10:15:57;0.70;;;0.30;;
57345;SDS011;43181;50.974;18.244;2023-05-31T10:18:25;0.40;;;0.30;;
57345;SDS011;43181;50.974;18.244;2023-05-31T10:20:58;0.80;;;0.30;;
57345;SDS011;43181;50.974;18.244;2023-05-31T10:23:26;1.10;;;0.50;;
57345;SDS011;43181;50.974;18.244;2023-05-31T10:28:27;0.90;;;0.30;;
57345;SDS011;43181;50.974;18.244;2023-05-31T10:30:54;0.30;;;0.30;;
57345;SDS011;43181;50.974;18.244;2023-05-31T10:33:20;1.00;;;0.70;;
57345;SDS011;43181;50.974;18.244;2023-05-31T10:35:47;0.50;;;0.50;;
57345;SDS011;43181;50.974;18.244;2023-05-31T10:38:13;2.40;;;0.40;;
57345;SDS011;43181;50.974;18.244;2023-05-31T10:43:27;1.20;;;0.30;;
57345;SDS011;43181;50.974;18.244;2023-05-31T10:46:09;0.70;;;0.20;;
57345;SDS011;43181;50.974;18.244;2023-05-31T10:51:17;0.70;;;0.40;;
57345;SDS011;43181;50.974;18.244;2023-05-31T10:53:44;0.50;;;0.30;;
57345;SDS011;43181;50.974;18.244;2023-05-31T10:56:11;0.40;;;0.30;;
57345;SDS011;43181;50.974;18.244;2023-05-31T10:58:39;2.60;;;0.70;;
57345;SDS011;43181;50.974;18.244;2023-05-31T11:01:07;2.20;;;0.50;;
57345;SDS011;43181;50.974;18.244;2023-05-31T11:03:44;0.40;;;0.30;;
57345;SDS011;43181;50.974;18.244;2023-05-31T11:06:16;0.80;;;0.60;;
57345;SDS011;43181;50.974;18.244;2023-05-31T11:08:56;0.90;;;0.20;;
57345;SDS011;43181;50.974;18.244;2023-05-31T11:14:05;0.20;;;0.20;;
57345;SDS011;43181;50.974;18.244;2023-05-31T11:19:16;0.40;;;0.20;;
57345;SDS011;43181;50.974;18.244;2023-05-31T11:21:46;0.20;;;0.20;;
57345;SDS011;43181;50.974;18.244;2023-05-31T11:27:20;0.30;;;0.20;;
57345;SDS011;43181;50.974;18.244;2023-05-31T11:35:02;0.60;;;0.30;;
57345;SDS011;43181;50.974;18.244;2023-05-31T11:37:32;0.20;;;0.20;;
57345;SDS011;43181;50.974;18.244;2023-05-31T11:40:00;0.50;;;0.30;;
57345;SDS011;43181;50.974;18.244;2023-05-31T11:42:37;0.40;;;0.30;;
57345;SDS011;43181;50.974;18.244;2023-05-31T11:45:07;0.70;;;0.20;;
57345;SDS011;43181;50.974;18.244;2023-05-31T11:47:49;0.40;;;0.30;;
57345;SDS011;43181;50.974;18.244;2023-05-31T11:50:16;0.50;;;0.50;;
57345;SDS011;43181;50.974;18.244;2023-05-31T11:52:43;0.70;;;0.30;;
57345;SDS011;43181;50.974;18.244;2023-05-31T11:55:09;1.00;;;0.30;;
57345;SDS011;43181;50.974;18.244;2023-05-31T11:57:39;0.20;;;0.20;;
57345;SDS011;43181;50.974;18.244;2023-05-31T12:00:12;0.10;;;0.10;;
57345;SDS011;43181;50.974;18.244;2023-05-31T12:02:41;1.60;;;0.50;;
57345;SDS011;43181;50.974;18.244;2023-05-31T12:05:14;1.50;;;0.40;;
57345;SDS011;43181;50.974;18.244;2023-05-31T12:07:46;0.40;;;0.30;;
57345;SDS011;43181;50.974;18.244;2023-05-31T12:10:12;0.30;;;0.20;;
57345;SDS011;43181;50.974;18.244;2023-05-31T12:12:38;0.40;;;0.30;;
57345;SDS011;43181;50.974;18.244;2023-05-31T12:15:06;0.90;;;0.40;;
57345;SDS011;43181;50.974;18.244;2023-05-31T12:17:32;0.70;;;0.30;;
57345;SDS011;43181;50.974;18.244;2023-05-31T12:19:58;1.80;;;0.40;;
57345;SDS011;43181;50.974;18.244;2023-05-31T12:22:25;3.30;;;0.30;;
57345;SDS011;43181;50.974;18.244;2023-05-31T12:24:55;0.20;;;0.20;;
57345;SDS011;43181;50.974;18.244;2023-05-31T12:27:24;1.20;;;0.40;;
57345;SDS011;43181;50.974;18.244;2023-05-31T12:29:57;1.70;;;0.20;;
57345;SDS011;43181;50.974;18.244;2023-05-31T12:32:23;1.30;;;0.90;;
57345;SDS011;43181;50.974;18.244;2023-05-31T12:35:14;3.40;;;0.40;;
57345;SDS011;43181;50.974;18.244;2023-05-31T12:37:40;2.20;;;0.30;;
57345;SDS011;43181;50.974;18.244;2023-05-31T12:40:13;0.80;;;0.40;;
57345;SDS011;43181;50.974;18.244;2023-05-31T12:42:40;0.90;;;0.60;;
57345;SDS011;43181;50.974;18.244;2023-05-31T12:45:07;1.50;;;0.50;;
57345;SDS011;43181;50.974;18.244;2023-05-31T12:47:33;4.50;;;0.50;;
57345;SDS011;43181;50.974;18.244;2023-05-31T12:50:04;1.70;;;0.20;;
57345;SDS011;43181;50.974;18.244;2023-05-31T12:52:38;0.50;;;0.50;;
57345;SDS011;43181;50.974;18.244;2023-05-31T12:55:04;3.50;;;0.60;;
57345;SDS011;43181;50.974;18.244;2023-05-31T12:57:31;1.30;;;0.70;;
57345;SDS011;43181;50.974;18.244;2023-05-31T13:00:06;0.70;;;0.30;;
57345;SDS011;43181;50.974;18.244;2023-05-31T13:02:35;0.40;;;0.40;;
57345;SDS011;43181;50.974;18.244;2023-05-31T13:05:04;0.80;;;0.50;;
57345;SDS011;43181;50.974;18.244;2023-05-31T13:07:30;1.00;;;0.80;;
57345;SDS011;43181;50.974;18.244;2023-05-31T13:09:58;0.60;;;0.40;;
57345;SDS011;43181;50.974;18.244;2023-05-31T13:12:24;0.30;;;0.10;;
57345;SDS011;43181;50.974;18.244;2023-05-31T13:14:50;0.50;;;0.30;;
57345;SDS011;43181;50.974;18.244;2023-05-31T13:17:18;0.90;;;0.50;;
57345;SDS011;43181;50.974;18.244;2023-05-31T13:19:44;0.70;;;0.50;;
57345;SDS011;43181;50.974;18.244;2023-05-31T13:22:11;2.00;;;0.60;;
57345;SDS011;43181;50.974;18.244;2023-05-31T13:24:37;0.20;;;0.20;;
57345;SDS011;43181;50.974;18.244;2023-05-31T13:27:04;0.50;;;0.40;;
57345;SDS011;43181;50.974;18.244;2023-05-31T13:29:31;0.20;;;0.20;;
57345;SDS011;43181;50.974;18.244;2023-05-31T13:31:57;0.50;;;0.40;;
57345;SDS011;43181;50.974;18.244;2023-05-31T13:34:23;0.30;;;0.20;;
57345;SDS011;43181;50.974;18.244;2023-05-31T13:36:48;0.30;;;0.10;;
57345;SDS011;43181;50.974;18.244;2023-05-31T13:39:14;1.30;;;0.70;;
57345;SDS011;43181;50.974;18.244;2023-05-31T13:41:41;0.30;;;0.30;;
57345;SDS011;43181;50.974;18.244;2023-05-31T13:44:08;1.30;;;0.40;;
57345;SDS011;43181;50.974;18.244;2023-05-31T13:46:34;1.10;;;0.90;;
57345;SDS011;43181;50.974;18.244;2023-05-31T13:49:00;1.00;;;0.60;;
57345;SDS011;43181;50.974;18.244;2023-05-31T13:51:25;3.00;;;0.90;;
57345;SDS011;43181;50.974;18.244;2023-05-31T13:53:51;0.70;;;0.50;;
57345;SDS011;43181;50.974;18.244;2023-05-31T13:56:16;0.10;;;0.10;;
57345;SDS011;43181;50.974;18.244;2023-05-31T13:58:42;0.40;;;0.40;;
57345;SDS011;43181;50.974;18.244;2023-05-31T14:01:07;0.50;;;0.50;;
57345;SDS011;43181;50.974;18.244;2023-05-31T14:03:34;0.30;;;0.30;;
57345;SDS011;43181;50.974;18.244;2023-05-31T14:06:00;1.30;;;0.40;;
57345;SDS011;43181;50.974;18.244;2023-05-31T14:08:26;0.40;;;0.40;;
57345;SDS011;43181;50.974;18.244;2023-05-31T14:10:52;0.90;;;0.70;;
57345;SDS011;43181;50.974;18.244;2023-05-31T14:13:18;0.30;;;0.30;;
57345;SDS011;43181;50.974;18.244;2023-05-31T14:15:44;3.90;;;0.20;;
57345;SDS011;43181;50.974;18.244;2023-05-31T14:18:10;0.40;;;0.20;;
57345;SDS011;43181;50.974;18.244;2023-05-31T14:20:36;0.20;;;0.20;;
57345;SDS011;43181;50.974;18.244;2023-05-31T14:23:02;0.40;;;0.40;;
57345;SDS011;43181;50.974;18.244;2023-05-31T14:25:28;0.60;;;0.50;;
57345;SDS011;43181;50.974;18.244;2023-05-31T14:27:53;1.00;;;0.30;;
57345;SDS011;43181;50.974;18.244;2023-05-31T14:30:19;1.00;;;1.00;;
57345;SDS011;43181;50.974;18.244;2023-05-31T14:32:45;0.40;;;0.40;;
57345;SDS011;43181;50.974;18.244;2023-05-31T14:35:10;0.80;;;0.60;;
57345;SDS011;43181;50.974;18.244;2023-05-31T14:37:37;0.90;;;0.60;;
57345;SDS011;43181;50.974;18.244;2023-05-31T14:40:02;0.60;;;0.20;;
57345;SDS011;43181;50.974;18.244;2023-05-31T14:42:28;3.90;;;0.40;;
57345;SDS011;43181;50.974;18.244;2023-05-31T14:44:54;0.50;;;0.40;;
57345;SDS011;43181;50.974;18.244;2023-05-31T14:47:20;0.40;;;0.30;;
57345;SDS011;43181;50.974;18.244;2023-05-31T14:49:47;0.70;;;0.70;;
57345;SDS011;43181;50.974;18.244;2023-05-31T14:52:12;1.00;;;0.40;;
57345;SDS011;43181;50.974;18.244;2023-05-31T14:54:38;0.20;;;0.20;;
57345;SDS011;43181;50.974;18.244;2023-05-31T14:57:04;0.60;;;0.60;;
57345;SDS011;43181;50.974;18.244;2023-05-31T14:59:30;1.70;;;0.60;;
57345;SDS011;43181;50.974;18.244;2023-05-31T15:01:56;1.60;;;0.60;;
57345;SDS011;43181;50.974;18.244;2023-05-31T15:04:26;0.50;;;0.30;;